Time;durP1;ratioP1;P1;durP2;ratioP2;P2;SDS_P1;SDS_P2;PMS_P1;PMS_P2;Temp;Humidity;BMP_temperature;BMP_pressure;BME280_temperature;BME280_humidity;BME280_pressure;Samples;Min_cycle;Max_cycle;Signal;HPM_P1;HPM_P2
2023/06/30 00:01:54;;;;;;;0.10;0.10;;;;;;;;;;4983929;28;20050;-60
2023/06/30 00:04:22;;;;;;;0.10;0.10;;;;;;;;;;4984964;28;20662;-60
2023/06/30 00:06:49;;;;;;;0.10;0.10;;;;;;;;;;4985088;28;20085;-60
2023/06/30 00:09:15;;;;;;;0.10;0.10;;;;;;;;;;4984821;28;20047;-60
2023/06/30 00:11:41;;;;;;;0.10;0.10;;;;;;;;;;4985034;28;20135;-60
2023/06/30 00:14:06;;;;;;;0.10;0.10;;;;;;;;;;4986919;28;20053;-60
2023/06/30 00:16:32;;;;;;;0.10;0.10;;;;;;;;;;4987916;28;20078;-60
2023/06/30 00:18:58;;;;;;;0.10;0.10;;;;;;;;;;4988995;28;20053;-60
2023/06/30 00:21:23;;;;;;;0.10;0.10;;;;;;;;;;4988252;28;20050;-60
2023/06/30 00:23:49;;;;;;;0.10;0.10;;;;;;;;;;4988000;28;20100;-60
2023/06/30 00:26:14;;;;;;;0.10;0.10;;;;;;;;;;4988946;28;20545;-61
2023/06/30 00:28:40;;;;;;;0.10;0.10;;;;;;;;;;4988927;28;20449;-60
2023/06/30 00:31:05;;;;;;;0.10;0.10;;;;;;;;;;4988465;28;20062;-61
2023/06/30 00:33:31;;;;;;;0.10;0.10;;;;;;;;;;4988831;28;20132;-60
2023/06/30 00:35:56;;;;;;;0.10;0.10;;;;;;;;;;4988184;28;20133;-60
2023/06/30 00:38:22;;;;;;;0.10;0.10;;;;;;;;;;4988557;28;20050;-60
2023/06/30 00:40:47;;;;;;;0.10;0.10;;;;;;;;;;4987737;28;20073;-61
2023/06/30 00:43:13;;;;;;;0.10;0.10;;;;;;;;;;4986457;28;20082;-60
2023/06/30 00:45:38;;;;;;;0.10;0.10;;;;;;;;;;4988752;28;20050;-60
2023/06/30 00:48:05;;;;;;;0.10;0.10;;;;;;;;;;4989087;28;20415;-61
2023/06/30 00:50:30;;;;;;;0.10;0.10;;;;;;;;;;4987302;28;20061;-60
2023/06/30 00:52:56;;;;;;;0.10;0.10;;;;;;;;;;4988723;28;20490;-60
2023/06/30 00:55:23;;;;;;;0.10;0.10;;;;;;;;;;4987333;28;20046;-60
2023/06/30 00:57:48;;;;;;;0.10;0.10;;;;;;;;;;4988571;28;20050;-61
2023/06/30 01:00:15;;;;;;;0.10;0.10;;;;;;;;;;4987723;28;20152;-61
2023/06/30 01:03:01;;;;;;;0.10;0.10;;;;;;;;;;4988733;28;20496;-60
2023/06/30 01:05:34;;;;;;;0.10;0.10;;;;;;;;;;4987581;28;20104;-60
2023/06/30 01:08:20;;;;;;;0.10;0.10;;;;;;;;;;4988643;28;20061;-61
2023/06/30 01:10:46;;;;;;;0.10;0.10;;;;;;;;;;4986637;28;20109;-61
2023/06/30 01:13:13;;;;;;;0.10;0.10;;;;;;;;;;4987675;28;20054;-60
2023/06/30 01:15:39;;;;;;;0.10;0.10;;;;;;;;;;4988307;28;20166;-60
2023/06/30 01:18:04;;;;;;;0.10;0.10;;;;;;;;;;4988354;28;20136;-60
2023/06/30 01:20:32;;;;;;;0.10;0.10;;;;;;;;;;4986635;28;20313;-60
2023/06/30 01:22:58;;;;;;;;;;;;;;;;;;4989099;28;20046;-60
2023/06/30 01:25:26;;;;;;;0.10;0.10;;;;;;;;;;4988113;28;20004;-60
2023/06/30 01:27:53;;;;;;;0.10;0.10;;;;;;;;;;4986417;28;20050;-61
2023/06/30 01:30:19;;;;;;;0.10;0.10;;;;;;;;;;4986672;28;20086;-60
2023/06/30 01:32:46;;;;;;;0.10;0.10;;;;;;;;;;4987670;28;20290;-60
2023/06/30 01:35:11;;;;;;;0.03;0.03;;;;;;;;;;4987624;28;20527;-60
2023/06/30 01:37:37;;;;;;;0.10;0.10;;;;;;;;;;4987486;28;20081;-60
2023/06/30 01:40:04;;;;;;;0.10;0.10;;;;;;;;;;4987141;28;20058;-61
2023/06/30 01:42:30;;;;;;;0.10;0.10;;;;;;;;;;4987503;28;20046;-60
2023/06/30 01:44:56;;;;;;;0.10;0.10;;;;;;;;;;4986966;28;20096;-61
2023/06/30 01:47:21;;;;;;;0.10;0.10;;;;;;;;;;4986696;28;20062;-61
2023/06/30 01:49:47;;;;;;;0.10;0.10;;;;;;;;;;4987747;28;20054;-60
2023/06/30 01:52:12;;;;;;;0.10;0.10;;;;;;;;;;4987962;28;20479;-61
2023/06/30 01:54:38;;;;;;;0.10;0.10;;;;;;;;;;4987496;28;20073;-60
2023/06/30 01:57:03;;;;;;;0.10;0.10;;;;;;;;;;4988012;28;20140;-60
2023/06/30 01:59:29;;;;;;;0.10;0.10;;;;;;;;;;4986356;28;20451;-60
2023/06/30 02:01:54;;;;;;;0.10;0.10;;;;;;;;;;4986252;28;20054;-60
2023/06/30 02:04:20;;;;;;;0.10;0.10;;;;;;;;;;4988061;28;20054;-61
2023/06/30 02:06:46;;;;;;;0.10;0.10;;;;;;;;;;4987966;28;20438;-60
2023/06/30 02:09:12;;;;;;;0.10;0.10;;;;;;;;;;4987772;28;20142;-61
2023/06/30 02:11:38;;;;;;;0.10;0.10;;;;;;;;;;4988057;28;20483;-61
2023/06/30 02:14:03;;;;;;;0.13;0.13;;;;;;;;;;4988187;28;20050;-52
2023/06/30 02:16:29;;;;;;;0.10;0.10;;;;;;;;;;4988062;28;20054;-50
2023/06/30 02:18:54;;;;;;;0.10;0.10;;;;;;;;;;4988540;28;20046;-52
2023/06/30 02:21:20;;;;;;;0.10;0.10;;;;;;;;;;4987313;28;20082;-52
2023/06/30 02:23:46;;;;;;;0.10;0.10;;;;;;;;;;4988539;28;20505;-52
2023/06/30 02:26:11;;;;;;;0.10;0.10;;;;;;;;;;4988515;28;20053;-52
2023/06/30 02:28:37;;;;;;;0.10;0.10;;;;;;;;;;4988261;28;20062;-51
2023/06/30 02:31:02;;;;;;;0.10;0.10;;;;;;;;;;4987391;28;20450;-52
2023/06/30 02:33:28;;;;;;;0.10;0.10;;;;;;;;;;4987640;28;20562;-52
2023/06/30 02:35:53;;;;;;;0.10;0.10;;;;;;;;;;4986858;28;20469;-52
2023/06/30 02:38:19;;;;;;;0.10;0.10;;;;;;;;;;4987551;28;20050;-52
2023/06/30 02:40:45;;;;;;;0.10;0.10;;;;;;;;;;4987087;28;20226;-52
2023/06/30 02:43:10;;;;;;;0.10;0.10;;;;;;;;;;4988068;28;20403;-53
2023/06/30 02:45:36;;;;;;;0.10;0.10;;;;;;;;;;4987033;28;20060;-52
2023/06/30 02:48:02;;;;;;;0.10;0.10;;;;;;;;;;4987661;28;20069;-52
2023/06/30 02:50:29;;;;;;;0.10;0.10;;;;;;;;;;4987879;28;20054;-52
2023/06/30 02:52:55;;;;;;;0.20;0.20;;;;;;;;;;4983330;28;20351;-53
2023/06/30 02:55:21;;;;;;;0.10;0.10;;;;;;;;;;4966695;28;20074;-52
2023/06/30 02:57:46;;;;;;;0.10;0.10;;;;;;;;;;4968292;28;20050;-51
2023/06/30 03:00:12;;;;;;;0.10;0.10;;;;;;;;;;4972830;28;20523;-53
2023/06/30 03:02:38;;;;;;;0.10;0.10;;;;;;;;;;4986961;28;20058;-52
2023/06/30 03:05:04;;;;;;;0.10;0.10;;;;;;;;;;4987214;28;20153;-52
2023/06/30 03:07:30;;;;;;;0.10;0.10;;;;;;;;;;4987450;28;20042;-52
2023/06/30 03:09:56;;;;;;;0.10;0.10;;;;;;;;;;4986468;28;20505;-51
2023/06/30 03:12:21;;;;;;;0.10;0.10;;;;;;;;;;4987143;28;20050;-52
2023/06/30 03:14:47;;;;;;;0.10;0.10;;;;;;;;;;4987131;28;20046;-52
2023/06/30 03:17:13;;;;;;;0.10;0.10;;;;;;;;;;4987348;28;20053;-52
2023/06/30 03:19:38;;;;;;;0.10;0.10;;;;;;;;;;4986884;28;20073;-51
2023/06/30 03:22:04;;;;;;;0.10;0.10;;;;;;;;;;4986655;28;20057;-53
2023/06/30 03:24:29;;;;;;;0.10;0.10;;;;;;;;;;4985811;28;20077;-52
2023/06/30 03:26:55;;;;;;;0.10;0.10;;;;;;;;;;4986957;28;20104;-51
2023/06/30 03:29:20;;;;;;;0.10;0.10;;;;;;;;;;4986801;28;20069;-52
2023/06/30 03:31:46;;;;;;;0.10;0.10;;;;;;;;;;4986071;28;20058;-53
2023/06/30 03:34:11;;;;;;;0.10;0.10;;;;;;;;;;4986858;28;20411;-53
2023/06/30 03:36:37;;;;;;;0.10;0.10;;;;;;;;;;4987386;28;20506;-52
2023/06/30 03:39:02;;;;;;;0.10;0.10;;;;;;;;;;4986867;28;20053;-52
2023/06/30 03:41:28;;;;;;;0.10;0.10;;;;;;;;;;4986090;28;20050;-52
2023/06/30 03:43:53;;;;;;;0.10;0.10;;;;;;;;;;4987237;28;20145;-51
2023/06/30 03:46:19;;;;;;;0.10;0.10;;;;;;;;;;4987202;28;20104;-52
2023/06/30 03:48:45;;;;;;;0.10;0.10;;;;;;;;;;4988387;28;20109;-52
2023/06/30 03:51:10;;;;;;;0.10;0.10;;;;;;;;;;4990360;28;20050;-53
2023/06/30 03:53:35;;;;;;;0.10;0.10;;;;;;;;;;4982420;28;20058;-52
2023/06/30 03:56:01;;;;;;;0.10;0.10;;;;;;;;;;4990543;28;20057;-50
2023/06/30 03:58:28;;;;;;;0.10;0.10;;;;;;;;;;4991031;28;20042;-52
2023/06/30 04:00:54;;;;;;;0.10;0.10;;;;;;;;;;4989978;28;20086;-48
2023/06/30 04:03:20;;;;;;;0.10;0.10;;;;;;;;;;4990660;28;20301;-52
2023/06/30 04:05:46;;;;;;;0.10;0.10;;;;;;;;;;4990375;28;20042;-53
2023/06/30 04:08:12;;;;;;;0.10;0.10;;;;;;;;;;4990290;28;20415;-53
2023/06/30 04:10:38;;;;;;;0.10;0.10;;;;;;;;;;4990259;28;20100;-52
2023/06/30 04:13:06;;;;;;;0.10;0.10;;;;;;;;;;4990152;28;20054;-49
2023/06/30 04:15:32;;;;;;;0.10;0.10;;;;;;;;;;4990016;28;20518;-52
2023/06/30 04:17:58;;;;;;;0.10;0.10;;;;;;;;;;4990405;28;20145;-51
2023/06/30 04:20:23;;;;;;;0.10;0.10;;;;;;;;;;4989786;28;20498;-53
2023/06/30 04:22:49;;;;;;;0.10;0.10;;;;;;;;;;4990178;28;20054;-52
2023/06/30 04:25:14;;;;;;;0.10;0.10;;;;;;;;;;4989715;28;20259;-51
2023/06/30 04:27:40;;;;;;;0.10;0.10;;;;;;;;;;4990333;28;20419;-53
2023/06/30 04:30:06;;;;;;;0.10;0.10;;;;;;;;;;4989689;28;20050;-52
2023/06/30 04:32:31;;;;;;;0.10;0.10;;;;;;;;;;4989878;28;20334;-51
2023/06/30 04:34:58;;;;;;;0.10;0.10;;;;;;;;;;4989499;28;20167;-52
2023/06/30 04:37:24;;;;;;;0.10;0.10;;;;;;;;;;4989998;28;20137;-52
2023/06/30 04:39:50;;;;;;;0.10;0.10;;;;;;;;;;4989135;28;20407;-53
2023/06/30 04:42:16;;;;;;;0.10;0.10;;;;;;;;;;4988756;28;20537;-52
2023/06/30 04:44:41;;;;;;;0.10;0.10;;;;;;;;;;4988205;28;20562;-52
2023/06/30 04:47:07;;;;;;;0.10;0.10;;;;;;;;;;4989253;28;20051;-52
2023/06/30 04:49:32;;;;;;;0.38;0.32;;;;;;;;;;4989109;28;20058;-52
2023/06/30 04:51:58;;;;;;;0.10;0.10;;;;;;;;;;4986163;28;20058;-53
2023/06/30 04:54:23;;;;;;;0.10;0.10;;;;;;;;;;4969969;28;20061;-52
2023/06/30 04:56:49;;;;;;;0.10;0.10;;;;;;;;;;4970219;28;20526;-52
2023/06/30 04:59:15;;;;;;;0.10;0.10;;;;;;;;;;4969607;28;20145;-52
2023/06/30 05:01:40;;;;;;;0.10;0.10;;;;;;;;;;4986698;28;20057;-52
2023/06/30 05:04:06;;;;;;;0.10;0.10;;;;;;;;;;4989698;28;20108;-52
2023/06/30 05:06:31;;;;;;;0.10;0.10;;;;;;;;;;4989317;28;20499;-52
2023/06/30 05:08:57;;;;;;;0.10;0.10;;;;;;;;;;4989468;28;20054;-52
2023/06/30 05:11:22;;;;;;;0.25;0.20;;;;;;;;;;4989451;28;20109;-53
2023/06/30 05:13:48;;;;;;;0.10;0.10;;;;;;;;;;4989573;28;20105;-52
2023/06/30 05:16:13;;;;;;;0.10;0.10;;;;;;;;;;4989214;28;20054;-52
2023/06/30 05:18:39;;;;;;;0.10;0.10;;;;;;;;;;4989265;28;20302;-53
2023/06/30 05:21:06;;;;;;;0.10;0.10;;;;;;;;;;4989027;28;20058;-52
2023/06/30 05:23:32;;;;;;;0.10;0.10;;;;;;;;;;4989728;28;20094;-52
2023/06/30 05:25:58;;;;;;;0.10;0.10;;;;;;;;;;4988731;28;20492;-52
2023/06/30 05:28:24;;;;;;;0.10;0.10;;;;;;;;;;4989642;28;20066;-52
2023/06/30 05:30:49;;;;;;;0.10;0.10;;;;;;;;;;4989057;28;20062;-52
2023/06/30 05:33:15;;;;;;;0.10;0.10;;;;;;;;;;4989112;28;20483;-53
2023/06/30 05:35:41;;;;;;;0.10;0.10;;;;;;;;;;4989194;28;20632;-53
2023/06/30 05:38:06;;;;;;;0.10;0.10;;;;;;;;;;4985438;28;20050;-52
2023/06/30 05:40:32;;;;;;;0.10;0.10;;;;;;;;;;4986310;28;20054;-51
2023/06/30 05:42:57;;;;;;;0.10;0.10;;;;;;;;;;4988544;28;20546;-52
2023/06/30 05:45:23;;;;;;;0.10;0.10;;;;;;;;;;4988404;28;20077;-51
2023/06/30 05:47:48;;;;;;;0.10;0.10;;;;;;;;;;4988860;28;20061;-52
2023/06/30 05:50:14;;;;;;;0.10;0.10;;;;;;;;;;4988508;28;20054;-52
2023/06/30 05:52:39;;;;;;;0.08;0.08;;;;;;;;;;4987121;28;20077;-52
2023/06/30 05:55:05;;;;;;;0.10;0.10;;;;;;;;;;4988653;28;20050;-52
2023/06/30 05:57:31;;;;;;;0.10;0.10;;;;;;;;;;4988963;28;20042;-53
2023/06/30 05:59:56;;;;;;;0.10;0.10;;;;;;;;;;4988184;28;20056;-52
2023/06/30 06:02:22;;;;;;;0.10;0.10;;;;;;;;;;4988346;28;20207;-53
2023/06/30 06:04:47;;;;;;;0.10;0.10;;;;;;;;;;4988665;28;20402;-52
2023/06/30 06:07:13;;;;;;;0.10;0.10;;;;;;;;;;4988201;28;20054;-52
2023/06/30 06:09:39;;;;;;;0.10;0.10;;;;;;;;;;4987662;28;20074;-53
2023/06/30 06:12:04;;;;;;;0.10;0.10;;;;;;;;;;4987133;28;20133;-52
2023/06/30 06:14:30;;;;;;;0.10;0.10;;;;;;;;;;4987705;28;20054;-52
2023/06/30 06:16:55;;;;;;;0.10;0.10;;;;;;;;;;4988678;28;20089;-51
2023/06/30 06:19:21;;;;;;;0.10;0.10;;;;;;;;;;4988109;28;20270;-52
2023/06/30 06:21:47;;;;;;;0.10;0.10;;;;;;;;;;4988252;28;20116;-51
2023/06/30 06:24:13;;;;;;;0.10;0.10;;;;;;;;;;4988857;28;20053;-52
2023/06/30 06:26:39;;;;;;;0.10;0.10;;;;;;;;;;4987953;28;20499;-53
2023/06/30 06:29:04;;;;;;;0.10;0.10;;;;;;;;;;4989128;28;20070;-52
2023/06/30 06:31:30;;;;;;;0.10;0.10;;;;;;;;;;4988786;28;20058;-52
2023/06/30 06:33:56;;;;;;;0.10;0.10;;;;;;;;;;4988950;28;20046;-52
2023/06/30 06:36:21;;;;;;;0.10;0.10;;;;;;;;;;4989036;28;20050;-53
2023/06/30 06:38:47;;;;;;;0.10;0.10;;;;;;;;;;4987927;28;20046;-52
2023/06/30 06:41:12;;;;;;;0.10;0.10;;;;;;;;;;4987935;28;20061;-53
2023/06/30 06:43:38;;;;;;;0.10;0.10;;;;;;;;;;4988262;28;20050;-53
2023/06/30 06:46:03;;;;;;;0.10;0.10;;;;;;;;;;4987223;28;20077;-52
2023/06/30 06:48:29;;;;;;;0.10;0.10;;;;;;;;;;4988134;28;20050;-51
2023/06/30 06:50:57;;;;;;;0.10;0.10;;;;;;;;;;4987669;28;20061;-50
2023/06/30 06:53:24;;;;;;;0.10;0.10;;;;;;;;;;4987712;28;20095;-52
2023/06/30 06:55:50;;;;;;;0.10;0.10;;;;;;;;;;4986422;28;20050;-53
2023/06/30 06:58:16;;;;;;;0.10;0.10;;;;;;;;;;4988015;28;20505;-51
2023/06/30 07:00:42;;;;;;;0.10;0.10;;;;;;;;;;4986040;28;20050;-52
2023/06/30 07:03:08;;;;;;;0.10;0.10;;;;;;;;;;4986357;28;20089;-52
2023/06/30 07:05:33;;;;;;;0.10;0.10;;;;;;;;;;4987720;28;20061;-51
2023/06/30 07:07:59;;;;;;;0.10;0.10;;;;;;;;;;4987503;28;20050;-51
2023/06/30 07:10:24;;;;;;;0.10;0.10;;;;;;;;;;4986328;28;20058;-52
2023/06/30 07:12:50;;;;;;;0.10;0.10;;;;;;;;;;4987238;28;20050;-51
2023/06/30 07:15:16;;;;;;;0.10;0.10;;;;;;;;;;4986930;28;20054;-50
2023/06/30 07:17:41;;;;;;;0.10;0.10;;;;;;;;;;4987400;28;20072;-52
2023/06/30 07:20:07;;;;;;;0.10;0.10;;;;;;;;;;4986573;28;20495;-50
2023/06/30 07:22:33;;;;;;;0.20;0.20;;;;;;;;;;4986965;28;20056;-52
2023/06/30 07:25:00;;;;;;;0.10;0.10;;;;;;;;;;4987194;28;20054;-52
2023/06/30 07:27:26;;;;;;;0.10;0.10;;;;;;;;;;4987608;28;20107;-52
2023/06/30 07:29:51;;;;;;;0.10;0.10;;;;;;;;;;4985901;28;20050;-51
2023/06/30 07:32:17;;;;;;;0.10;0.10;;;;;;;;;;4986666;28;20158;-52
2023/06/30 07:34:42;;;;;;;0.10;0.10;;;;;;;;;;4987072;28;20050;-52
2023/06/30 07:37:08;;;;;;;0.10;0.10;;;;;;;;;;4987184;28;20070;-52
2023/06/30 07:39:34;;;;;;;0.10;0.10;;;;;;;;;;4985602;28;20049;-51
2023/06/30 07:41:59;;;;;;;0.10;0.10;;;;;;;;;;4985521;28;20058;-51
2023/06/30 07:44:25;;;;;;;0.10;0.10;;;;;;;;;;4986907;28;20073;-52
2023/06/30 07:46:51;;;;;;;0.10;0.10;;;;;;;;;;4985077;28;20051;-52
2023/06/30 07:49:16;;;;;;;0.10;0.10;;;;;;;;;;4967740;28;20055;-52
2023/06/30 07:51:42;;;;;;;0.10;0.10;;;;;;;;;;4977209;28;20054;-51
2023/06/30 07:54:07;;;;;;;0.10;0.10;;;;;;;;;;4986933;28;20058;-53
2023/06/30 07:56:33;;;;;;;0.10;0.10;;;;;;;;;;4987063;28;20175;-52
2023/06/30 07:58:59;;;;;;;0.10;0.10;;;;;;;;;;4987576;28;20057;-52
2023/06/30 08:01:25;;;;;;;0.20;0.20;;;;;;;;;;4986701;28;20105;-52
2023/06/30 08:03:51;;;;;;;0.10;0.10;;;;;;;;;;4986940;28;20703;-52
2023/06/30 08:06:16;;;;;;;0.10;0.10;;;;;;;;;;4987197;28;20144;-52
2023/06/30 08:08:42;;;;;;;0.10;0.10;;;;;;;;;;4986862;28;20043;-52
2023/06/30 08:11:08;;;;;;;0.10;0.10;;;;;;;;;;4986373;28;20624;-51
2023/06/30 08:13:33;;;;;;;0.10;0.10;;;;;;;;;;4986786;28;20070;-52
2023/06/30 08:15:59;;;;;;;0.10;0.10;;;;;;;;;;4985093;28;20048;-53
2023/06/30 08:18:26;;;;;;;0.10;0.10;;;;;;;;;;4987056;28;20078;-53
2023/06/30 08:20:58;;;;;;;0.38;0.38;;;;;;;;;;4985336;28;20078;-48
2023/06/30 08:23:25;;;;;;;0.10;0.10;;;;;;;;;;4986876;28;20097;-48
2023/06/30 08:25:53;;;;;;;0.10;0.10;;;;;;;;;;4985609;28;20105;-52
2023/06/30 08:28:19;;;;;;;0.10;0.10;;;;;;;;;;4986684;28;20093;-52
2023/06/30 08:30:44;;;;;;;0.10;0.10;;;;;;;;;;4986251;28;20425;-52
2023/06/30 08:33:10;;;;;;;0.10;0.10;;;;;;;;;;4986930;28;20294;-52
2023/06/30 08:35:36;;;;;;;0.10;0.10;;;;;;;;;;4988970;28;20427;-52
2023/06/30 08:38:01;;;;;;;0.10;0.10;;;;;;;;;;4990254;28;20104;-52
2023/06/30 08:40:29;;;;;;;0.10;0.10;;;;;;;;;;4988901;28;20112;-52
2023/06/30 08:42:57;;;;;;;0.20;0.20;;;;;;;;;;4989974;28;20057;-52
2023/06/30 08:45:24;;;;;;;0.10;0.10;;;;;;;;;;4988297;28;20518;-52
2023/06/30 08:47:49;;;;;;;0.10;0.10;;;;;;;;;;4988845;28;20081;-52
2023/06/30 08:50:15;;;;;;;0.10;0.10;;;;;;;;;;4989370;28;20046;-51
2023/06/30 08:52:41;;;;;;;0.10;0.10;;;;;;;;;;4989984;28;20055;-53
2023/06/30 08:55:08;;;;;;;0.10;0.10;;;;;;;;;;4990093;28;20085;-51
2023/06/30 08:57:34;;;;;;;0.10;0.10;;;;;;;;;;4989683;28;20474;-52
2023/06/30 09:00:00;;;;;;;0.10;0.10;;;;;;;;;;4989693;28;20062;-50
2023/06/30 09:02:25;;;;;;;0.10;0.10;;;;;;;;;;4989794;28;20065;-52
2023/06/30 09:04:51;;;;;;;0.10;0.10;;;;;;;;;;4989813;28;20506;-52
2023/06/30 09:07:22;;;;;;;0.10;0.10;;;;;;;;;;4990021;28;20145;-52
2023/06/30 09:09:49;;;;;;;0.10;0.10;;;;;;;;;;4987607;28;20503;-51
2023/06/30 09:12:14;;;;;;;0.10;0.10;;;;;;;;;;4989388;28;20415;-50
2023/06/30 09:14:40;;;;;;;0.10;0.10;;;;;;;;;;4989510;28;20511;-52
2023/06/30 09:17:06;;;;;;;0.10;0.10;;;;;;;;;;4989978;28;20144;-52
2023/06/30 09:19:32;;;;;;;0.10;0.10;;;;;;;;;;4987988;28;20120;-52
2023/06/30 09:21:57;;;;;;;0.10;0.10;;;;;;;;;;4989082;28;20058;-53
2023/06/30 09:24:23;;;;;;;0.10;0.10;;;;;;;;;;4988024;28;20065;-52
2023/06/30 09:26:50;;;;;;;0.10;0.10;;;;;;;;;;4989638;28;20054;-51
2023/06/30 09:29:18;;;;;;;0.10;0.10;;;;;;;;;;4988108;28;20218;-53
2023/06/30 09:31:43;;;;;;;0.10;0.10;;;;;;;;;;4987314;28;20078;-52
2023/06/30 09:34:10;;;;;;;0.10;0.10;;;;;;;;;;4988672;28;20061;-52
2023/06/30 09:36:37;;;;;;;0.10;0.10;;;;;;;;;;4988360;28;20329;-52
2023/06/30 09:39:07;;;;;;;0.10;0.10;;;;;;;;;;4988825;28;20493;-51
2023/06/30 09:41:33;;;;;;;0.20;0.20;;;;;;;;;;4988483;28;20046;-51
2023/06/30 09:43:58;;;;;;;0.10;0.10;;;;;;;;;;4988632;28;20052;-52
2023/06/30 09:46:24;;;;;;;0.20;0.20;;;;;;;;;;4988611;28;20050;-52
2023/06/30 09:48:53;;;;;;;0.10;0.10;;;;;;;;;;4989352;28;20050;-52
2023/06/30 09:51:20;;;;;;;0.10;0.10;;;;;;;;;;4988465;28;20375;-53
2023/06/30 09:53:45;;;;;;;0.10;0.10;;;;;;;;;;4989249;28;20052;-53
2023/06/30 09:56:18;;;;;;;0.10;0.10;;;;;;;;;;4989065;28;20050;-52
2023/06/30 09:58:44;;;;;;;0.10;0.10;;;;;;;;;;4988897;28;20164;-53
2023/06/30 10:01:10;;;;;;;0.10;0.10;;;;;;;;;;4988416;28;20553;-52
2023/06/30 10:03:51;;;;;;;0.10;0.10;;;;;;;;;;4989120;28;20050;-52
2023/06/30 10:06:17;;;;;;;0.10;0.10;;;;;;;;;;4989023;28;20097;-52
2023/06/30 10:08:45;;;;;;;0.10;0.10;;;;;;;;;;4989070;28;20042;-53
2023/06/30 10:11:11;;;;;;;0.10;0.10;;;;;;;;;;4988788;28;20305;-52
2023/06/30 10:13:38;;;;;;;0.10;0.10;;;;;;;;;;4988400;28;20362;-52
2023/06/30 10:16:05;;;;;;;0.10;0.10;;;;;;;;;;4988437;28;20051;-53
2023/06/30 10:18:32;;;;;;;0.10;0.10;;;;;;;;;;4988779;28;20440;-51
2023/06/30 10:20:58;;;;;;;0.10;0.10;;;;;;;;;;4988375;28;20296;-52
2023/06/30 10:23:24;;;;;;;0.10;0.10;;;;;;;;;;4988710;28;20058;-53
2023/06/30 10:25:49;;;;;;;0.10;0.10;;;;;;;;;;4988124;28;20538;-52
2023/06/30 10:28:16;;;;;;;0.10;0.10;;;;;;;;;;4989068;28;20050;-52
2023/06/30 10:30:42;;;;;;;0.10;0.10;;;;;;;;;;4988081;28;20061;-51
2023/06/30 10:33:08;;;;;;;0.10;0.10;;;;;;;;;;4987769;28;20120;-52
2023/06/30 10:35:34;;;;;;;0.10;0.10;;;;;;;;;;4987937;28;20156;-51
2023/06/30 10:38:00;;;;;;;0.10;0.10;;;;;;;;;;4988187;28;20483;-50
2023/06/30 10:40:26;;;;;;;0.10;0.10;;;;;;;;;;4986642;28;20133;-51
2023/06/30 10:42:53;;;;;;;0.10;0.10;;;;;;;;;;4987470;28;20407;-52
2023/06/30 10:45:20;;;;;;;0.10;0.10;;;;;;;;;;4985133;28;20553;-53
2023/06/30 10:47:49;;;;;;;0.10;0.10;;;;;;;;;;4987560;28;20050;-52
2023/06/30 10:50:15;;;;;;;0.10;0.10;;;;;;;;;;4979418;28;20054;-51
2023/06/30 10:52:48;;;;;;;0.10;0.10;;;;;;;;;;4986723;28;20101;-53
2023/06/30 10:55:13;;;;;;;0.10;0.10;;;;;;;;;;4987150;28;20078;-52
2023/06/30 10:57:39;;;;;;;0.10;0.10;;;;;;;;;;4986968;28;20057;-53
2023/06/30 11:00:06;;;;;;;0.10;0.10;;;;;;;;;;4986376;28;20222;-52
2023/06/30 11:02:32;;;;;;;0.10;0.10;;;;;;;;;;4986969;28;20050;-53
2023/06/30 11:05:16;;;;;;;0.10;0.10;;;;;;;;;;4986903;28;20085;-52
2023/06/30 11:07:45;;;;;;;0.10;0.10;;;;;;;;;;4987005;28;20046;-52
2023/06/30 11:10:11;;;;;;;0.10;0.10;;;;;;;;;;4986360;28;20647;-52
2023/06/30 11:12:52;;;;;;;0.10;0.10;;;;;;;;;;4986271;28;20589;-52
2023/06/30 11:15:37;;;;;;;0.10;0.10;;;;;;;;;;4986120;28;20499;-52
2023/06/30 11:18:06;;;;;;;0.10;0.10;;;;;;;;;;4985590;28;20503;-52
2023/06/30 11:20:31;;;;;;;;;;;;;;;;;;4986540;28;20050;-51
2023/06/30 11:25:33;;;;;;;0.10;0.10;;;;;;;;;;5185830;27;20920;-50
2023/06/30 11:28:01;;;;;;;0.10;0.10;;;;;;;;;;5165756;27;20058;-50
2023/06/30 11:30:27;;;;;;;;;;;;;;;;;;5165628;27;20054;-50
2023/06/30 11:32:54;;;;;;;0.10;0.10;;;;;;;;;;5165391;27;19925;-50
2023/06/30 11:35:19;;;;;;;0.10;0.10;;;;;;;;;;5148311;27;20102;-49
2023/06/30 11:37:46;;;;;;;0.10;0.10;;;;;;;;;;5165283;27;20050;-50
2023/06/30 11:40:12;;;;;;;0.10;0.10;;;;;;;;;;5158965;27;20050;-49
2023/06/30 11:42:38;;;;;;;0.10;0.10;;;;;;;;;;5144256;27;20043;-50
2023/06/30 11:45:05;;;;;;;0.10;0.10;;;;;;;;;;5143843;27;20146;-49
2023/06/30 11:47:30;;;;;;;0.10;0.10;;;;;;;;;;5163358;27;20057;-50
2023/06/30 11:49:56;;;;;;;0.10;0.10;;;;;;;;;;5146010;27;20059;-50
2023/06/30 11:52:21;;;;;;;0.10;0.10;;;;;;;;;;5180404;27;20042;-50
2023/06/30 11:54:47;;;;;;;0.10;0.10;;;;;;;;;;5170091;27;20053;-50
2023/06/30 11:57:13;;;;;;;0.10;0.10;;;;;;;;;;5165345;27;20393;-50
2023/06/30 11:59:38;;;;;;;0.10;0.10;;;;;;;;;;5165055;27;20188;-49
2023/06/30 12:02:04;;;;;;;0.10;0.10;;;;;;;;;;5146881;27;20542;-49
2023/06/30 12:04:33;;;;;;;0.10;0.10;;;;;;;;;;5142831;27;20302;-49
2023/06/30 12:06:59;;;;;;;0.10;0.10;;;;;;;;;;5144715;27;20046;-50
2023/06/30 12:09:24;;;;;;;0.10;0.10;;;;;;;;;;5144121;27;20131;-50
2023/06/30 12:11:50;;;;;;;0.10;0.10;;;;;;;;;;5107401;27;20040;-51
2023/06/30 12:14:17;;;;;;;0.10;0.10;;;;;;;;;;5123404;28;20051;-48
2023/06/30 12:16:43;;;;;;;0.10;0.10;;;;;;;;;;5105290;28;20472;-50
2023/06/30 12:19:09;;;;;;;0.10;0.10;;;;;;;;;;5123972;28;20402;-49
2023/06/30 12:21:35;;;;;;;0.10;0.10;;;;;;;;;;5104537;28;20329;-50
2023/06/30 12:24:01;;;;;;;0.10;0.10;;;;;;;;;;5123146;28;20050;-50
2023/06/30 12:26:27;;;;;;;0.10;0.10;;;;;;;;;;5104225;28;20156;-48
2023/06/30 12:28:53;;;;;;;0.10;0.10;;;;;;;;;;5123673;27;20290;-50
2023/06/30 12:31:25;;;;;;;0.10;0.10;;;;;;;;;;5122853;27;20285;-49
2023/06/30 12:33:51;;;;;;;0.10;0.10;;;;;;;;;;5122754;28;20040;-52
2023/06/30 12:36:20;;;;;;;0.10;0.10;;;;;;;;;;5131466;27;20083;-52
2023/06/30 12:38:45;;;;;;;0.10;0.10;;;;;;;;;;5128731;28;20046;-50
2023/06/30 12:41:11;;;;;;;0.10;0.10;;;;;;;;;;5129068;28;20517;-52
2023/06/30 12:43:36;;;;;;;0.10;0.10;;;;;;;;;;5129459;28;20059;-52
2023/06/30 12:46:02;;;;;;;0.10;0.10;;;;;;;;;;5129187;28;20051;-51
2023/06/30 12:48:28;;;;;;;0.10;0.10;;;;;;;;;;5128547;28;20305;-52
2023/06/30 12:50:56;;;;;;;0.10;0.10;;;;;;;;;;5131725;27;20293;-52
2023/06/30 12:53:21;;;;;;;0.10;0.10;;;;;;;;;;5150463;27;20057;-52
2023/06/30 12:55:47;;;;;;;0.10;0.10;;;;;;;;;;5141174;27;20066;-52
2023/06/30 12:58:12;;;;;;;0.10;0.10;;;;;;;;;;5129346;27;20055;-52
2023/06/30 13:00:38;;;;;;;0.10;0.10;;;;;;;;;;5119407;27;20426;-53
2023/06/30 13:03:04;;;;;;;0.10;0.10;;;;;;;;;;5111286;28;20043;-51
2023/06/30 13:05:30;;;;;;;0.10;0.10;;;;;;;;;;5129004;27;20051;-51
2023/06/30 13:07:56;;;;;;;0.17;0.17;;;;;;;;;;5129732;28;20070;-51
2023/06/30 13:10:22;;;;;;;0.10;0.10;;;;;;;;;;5128774;28;20128;-51
2023/06/30 13:12:47;;;;;;;0.10;0.10;;;;;;;;;;5129249;28;20443;-52
2023/06/30 13:15:13;;;;;;;0.10;0.10;;;;;;;;;;5129041;28;20096;-52
2023/06/30 13:17:38;;;;;;;0.10;0.10;;;;;;;;;;5129613;28;20057;-52
2023/06/30 13:20:06;;;;;;;0.10;0.10;;;;;;;;;;5129057;28;20133;-52
2023/06/30 13:22:31;;;;;;;0.10;0.10;;;;;;;;;;5128963;28;20149;-51
2023/06/30 13:24:57;;;;;;;0.10;0.10;;;;;;;;;;5128990;28;20047;-52
2023/06/30 13:27:22;;;;;;;0.10;0.10;;;;;;;;;;5129201;28;20051;-52
2023/06/30 13:29:49;;;;;;;0.10;0.10;;;;;;;;;;5128880;28;20053;-51
2023/06/30 13:32:15;;;;;;;0.10;0.10;;;;;;;;;;5128074;28;20120;-52
2023/06/30 13:34:42;;;;;;;0.10;0.10;;;;;;;;;;5128535;28;20413;-51
2023/06/30 13:37:07;;;;;;;0.10;0.10;;;;;;;;;;5110568;28;20636;-52
2023/06/30 13:39:35;;;;;;;0.10;0.10;;;;;;;;;;5127938;28;20063;-49
2023/06/30 13:42:01;;;;;;;0.10;0.10;;;;;;;;;;5109896;28;20145;-52
2023/06/30 13:44:27;;;;;;;0.10;0.10;;;;;;;;;;5128353;28;20086;-51
2023/06/30 13:46:53;;;;;;;0.10;0.10;;;;;;;;;;5127300;27;20043;-51
2023/06/30 13:49:18;;;;;;;0.10;0.10;;;;;;;;;;5130169;27;20050;-51
2023/06/30 13:51:44;;;;;;;0.10;0.10;;;;;;;;;;5126633;27;20564;-51
2023/06/30 13:54:09;;;;;;;0.10;0.10;;;;;;;;;;5128167;28;20274;-51
2023/06/30 13:56:35;;;;;;;0.10;0.10;;;;;;;;;;5128393;28;20047;-50
2023/06/30 13:59:00;;;;;;;0.10;0.10;;;;;;;;;;5127746;28;20053;-52
2023/06/30 14:01:26;;;;;;;0.10;0.10;;;;;;;;;;5111515;27;20491;-52
2023/06/30 14:03:54;;;;;;;0.10;0.10;;;;;;;;;;5089254;28;20101;-51
2023/06/30 14:06:20;;;;;;;0.10;0.10;;;;;;;;;;5122088;28;20104;-51
2023/06/30 14:08:46;;;;;;;0.10;0.10;;;;;;;;;;5109384;28;20055;-52
2023/06/30 14:11:14;;;;;;;0.10;0.10;;;;;;;;;;5128169;28;20265;-52
2023/06/30 14:13:40;;;;;;;0.10;0.10;;;;;;;;;;5128131;28;20054;-52
2023/06/30 14:16:06;;;;;;;0.10;0.10;;;;;;;;;;5128049;28;20043;-52
2023/06/30 14:18:31;;;;;;;0.10;0.10;;;;;;;;;;5110236;28;20567;-51
2023/06/30 14:20:57;;;;;;;0.10;0.10;;;;;;;;;;5127815;28;20116;-51
2023/06/30 14:23:22;;;;;;;0.10;0.10;;;;;;;;;;5128150;28;20452;-52
2023/06/30 14:25:48;;;;;;;0.10;0.10;;;;;;;;;;5128048;28;20090;-52
2023/06/30 14:28:14;;;;;;;0.10;0.10;;;;;;;;;;5128450;28;20054;-52
2023/06/30 14:30:39;;;;;;;0.10;0.10;;;;;;;;;;5127904;28;20050;-51
2023/06/30 14:33:05;;;;;;;0.10;0.10;;;;;;;;;;5127956;28;20180;-51
2023/06/30 14:35:31;;;;;;;0.10;0.10;;;;;;;;;;5128186;28;20054;-51
2023/06/30 14:37:57;;;;;;;0.10;0.10;;;;;;;;;;5109372;28;20063;-51
2023/06/30 14:40:24;;;;;;;0.10;0.10;;;;;;;;;;5120232;27;20083;-52